createdAt,value
2022-08-11T00:01:17.145Z,21.70
2022-08-11T00:03:50.072Z,21.60
2022-08-11T00:06:27.525Z,21.60
2022-08-11T00:08:57.161Z,21.50
2022-08-11T00:11:36.266Z,21.60
2022-08-11T00:14:15.827Z,21.50
2022-08-11T00:16:46.448Z,21.50
2022-08-11T00:20:13.846Z,21.50
2022-08-11T00:22:12.198Z,21.40
2022-08-11T00:24:53.447Z,21.40
2022-08-11T00:27:34.614Z,21.40
2022-08-11T00:30:06.129Z,21.60
2022-08-11T00:32:35.826Z,21.30
2022-08-11T00:35:54.433Z,21.30
2022-08-11T00:37:58.739Z,21.30
2022-08-11T00:40:38.850Z,21.20
2022-08-11T00:43:39.646Z,21.30
2022-08-11T00:46:18.711Z,21.20
2022-08-11T00:49:03.975Z,21.20
2022-08-11T00:52:05.785Z,21.10
2022-08-11T00:55:31.173Z,21.00
2022-08-11T00:58:51.269Z,21.00
2022-08-11T01:01:36.430Z,21.00
2022-08-11T01:04:41.048Z,21.00
2022-08-11T01:08:12.745Z,21.10
2022-08-11T01:11:02.953Z,20.90
2022-08-11T01:14:16.861Z,20.80
2022-08-11T01:17:42.970Z,20.80
2022-08-11T01:20:49.136Z,20.80
2022-08-11T01:23:56.548Z,20.70
2022-08-11T01:27:28.561Z,20.70
2022-08-11T01:30:45.150Z,20.60
2022-08-11T01:34:15.030Z,20.60
2022-08-11T01:37:27.563Z,20.60
2022-08-11T01:40:45.027Z,20.50
2022-08-11T01:44:05.620Z,20.50
2022-08-11T01:46:47.024Z,20.50
2022-08-11T01:50:05.917Z,20.40
2022-08-11T01:52:30.961Z,20.40
2022-08-11T01:55:15.394Z,20.40
2022-08-11T01:57:58.048Z,20.40
2022-08-11T02:00:30.836Z,20.40
2022-08-11T02:03:08.994Z,20.30
2022-08-11T02:06:01.603Z,20.30
2022-08-11T02:08:50.837Z,20.20
2022-08-11T02:11:35.185Z,20.20
2022-08-11T02:14:22.706Z,20.20
2022-08-11T02:17:15.407Z,20.10
2022-08-11T02:20:13.915Z,20.10
2022-08-11T02:24:05.621Z,20.10
2022-08-11T02:26:23.739Z,19.90
2022-08-11T02:29:05.038Z,19.90
2022-08-11T02:32:28.697Z,19.90
2022-08-11T02:35:05.984Z,19.80
2022-08-11T02:37:54.342Z,19.80
2022-08-11T02:40:32.449Z,20.10
2022-08-11T02:43:18.175Z,20.00
2022-08-11T02:46:08.052Z,19.70
2022-08-11T02:49:24.169Z,19.70
2022-08-11T02:52:06.549Z,19.70
2022-08-11T02:54:58.785Z,19.70
2022-08-11T02:57:35.197Z,19.60
2022-08-11T03:00:10.980Z,19.60
2022-08-11T03:03:07.749Z,19.60
2022-08-11T03:05:58.621Z,19.70
2022-08-11T03:08:52.577Z,19.50
2022-08-11T03:12:04.753Z,19.50
2022-08-11T03:15:01.965Z,19.40
2022-08-11T03:17:38.864Z,19.40
2022-08-11T03:20:39.326Z,19.30
2022-08-11T03:23:20.166Z,19.30
2022-08-11T03:25:56.840Z,19.30
2022-08-11T03:28:33.528Z,19.30
2022-08-11T03:31:24.833Z,19.20
2022-08-11T03:34:07.277Z,19.30
2022-08-11T03:37:17.259Z,19.10
2022-08-11T03:40:00.928Z,19.10
2022-08-11T03:42:43.121Z,19.00
2022-08-11T03:45:25.006Z,19.00
2022-08-11T03:48:13.985Z,18.90
2022-08-11T03:51:08.149Z,18.90
2022-08-11T03:54:05.437Z,18.80
2022-08-11T03:57:36.005Z,18.80
2022-08-11T04:00:56.482Z,18.70
2022-08-11T04:03:51.791Z,18.70
2022-08-11T04:07:23.520Z,18.60
2022-08-11T04:10:33.900Z,18.60
2022-08-11T04:14:25.203Z,18.60
2022-08-11T04:17:22.834Z,18.50
2022-08-11T04:20:44.948Z,18.50
2022-08-11T04:24:36.170Z,18.40
2022-08-11T04:27:04.924Z,18.40
2022-08-11T04:30:03.619Z,18.40
2022-08-11T04:33:36.527Z,18.30
2022-08-11T04:36:48.152Z,18.30
2022-08-11T04:39:43.849Z,18.30
2022-08-11T04:43:24.366Z,18.30
2022-08-11T04:46:31.505Z,18.30
2022-08-11T04:49:51.098Z,18.20
2022-08-11T04:53:01.286Z,18.20
2022-08-11T04:56:30.823Z,18.20
2022-08-11T05:00:16.937Z,18.20
2022-08-11T05:03:44.634Z,18.10
2022-08-11T05:06:49.277Z,18.10
2022-08-11T05:09:54.675Z,18.10
2022-08-11T05:12:37.826Z,18.10
2022-08-11T05:15:30.969Z,18.10
2022-08-11T05:18:35.652Z,18.00
2022-08-11T05:21:27.634Z,18.10
2022-08-11T05:24:22.628Z,18.00
2022-08-11T05:27:13.658Z,18.00
2022-08-11T05:30:05.317Z,18.00
2022-08-11T05:33:01.499Z,18.00
2022-08-11T05:36:01.649Z,18.10
2022-08-11T05:38:49.813Z,18.00
2022-08-11T05:41:39.374Z,18.00
2022-08-11T05:44:25.876Z,18.00
2022-08-11T05:47:13.528Z,18.00
2022-08-11T05:50:00.208Z,18.00
2022-08-11T05:52:55.422Z,18.00
2022-08-11T05:55:52.532Z,18.10
2022-08-11T05:58:42.447Z,18.10
2022-08-11T06:01:14.388Z,18.10
2022-08-11T06:04:04.573Z,18.10
2022-08-11T06:06:33.494Z,18.20
2022-08-11T06:09:02.771Z,18.20
2022-08-11T06:11:44.308Z,18.20
2022-08-11T06:14:15.604Z,18.20
2022-08-11T06:16:48.758Z,18.30
2022-08-11T06:19:23.121Z,18.30
2022-08-11T06:21:53.268Z,18.40
2022-08-11T06:24:21.871Z,18.40
2022-08-11T06:29:54.426Z,18.50
2022-08-11T06:32:27.407Z,18.60
2022-08-11T06:35:21.045Z,18.60
2022-08-11T06:38:06.375Z,18.90
2022-08-11T06:41:05.012Z,18.80
2022-08-11T06:43:55.291Z,18.80
2022-08-11T06:46:30.150Z,18.90
2022-08-11T06:48:59.517Z,19.00
2022-08-11T06:51:32.680Z,19.00
2022-08-11T06:54:05.704Z,19.10
2022-08-11T07:00:02.453Z,19.20
2022-08-11T07:02:35.189Z,19.30
2022-08-11T07:05:08.853Z,19.40
2022-08-11T07:08:47.680Z,19.50
2022-08-11T07:12:27.385Z,19.60
2022-08-11T07:15:15.566Z,19.70
2022-08-11T07:18:10.113Z,19.80
2022-08-11T07:21:02.101Z,19.90
2022-08-11T07:23:53.425Z,20.00
2022-08-11T07:26:43.159Z,20.10
2022-08-11T07:29:14.309Z,20.20
2022-08-11T07:31:50.167Z,20.30
2022-08-11T07:34:24.558Z,20.40
2022-08-11T07:36:56.132Z,20.50
2022-08-11T07:39:29.016Z,20.60
2022-08-11T07:42:01.356Z,20.70
2022-08-11T07:44:35.076Z,20.90
2022-08-11T07:47:21.896Z,20.90
2022-08-11T07:50:09.241Z,21.00
2022-08-11T07:52:40.608Z,21.40
2022-08-11T07:55:18.392Z,21.40
2022-08-11T07:58:16.970Z,21.50
2022-08-11T08:01:16.029Z,21.60
2022-08-11T08:04:09.469Z,21.80
2022-08-11T08:06:56.641Z,21.90
2022-08-11T08:09:44.068Z,22.10
2022-08-11T08:12:31.957Z,22.20
2022-08-11T08:15:19.527Z,22.30
2022-08-11T08:18:09.630Z,22.50
2022-08-11T08:20:50.650Z,22.60
2022-08-11T08:23:33.266Z,22.70
2022-08-11T08:26:04.594Z,22.90
2022-08-11T08:28:35.498Z,23.00
2022-08-11T08:31:04.537Z,23.30
2022-08-11T08:33:33.806Z,23.30
2022-08-11T08:36:12.992Z,23.40
2022-08-11T08:38:44.177Z,23.60
2022-08-11T08:41:16.285Z,23.60
2022-08-11T08:43:53.034Z,23.80
2022-08-11T08:46:27.042Z,24.00
2022-08-11T08:48:56.453Z,24.10
2022-08-11T08:51:58.627Z,24.30
2022-08-11T08:54:35.576Z,24.40
2022-08-11T08:57:05.998Z,24.60
2022-08-11T08:59:48.481Z,24.80
2022-08-11T09:02:33.570Z,25.00
2022-08-11T09:05:05.257Z,25.10
2022-08-11T09:07:39.968Z,25.20
2022-08-11T09:10:11.518Z,25.40
2022-08-11T09:12:42.606Z,25.50
2022-08-11T09:15:15.133Z,25.80
2022-08-11T09:17:50.636Z,25.80
2022-08-11T09:20:22.912Z,25.90
2022-08-11T09:26:19.721Z,26.10
2022-08-11T09:28:50.132Z,26.30
2022-08-11T09:31:22.802Z,26.40
2022-08-11T09:33:55.662Z,26.70
2022-08-11T09:36:42.138Z,26.60
2022-08-11T09:39:31.178Z,26.80
2022-08-11T09:42:03.348Z,26.90
2022-08-11T09:44:50.695Z,27.00
2022-08-11T09:47:25.173Z,27.10
2022-08-11T09:50:00.345Z,27.20
2022-08-11T09:52:32.441Z,27.20
2022-08-11T09:55:02.312Z,27.30
2022-08-11T09:57:48.801Z,27.40
2022-08-11T10:00:18.157Z,27.50
2022-08-11T10:02:50.025Z,27.60
2022-08-11T10:05:38.733Z,27.70
2022-08-11T10:08:08.990Z,27.80
2022-08-11T10:10:39.488Z,27.90
2022-08-11T10:14:30.126Z,28.00
2022-08-11T10:16:15.394Z,28.10
2022-08-11T10:18:52.836Z,28.30
2022-08-11T10:21:29.530Z,28.50
2022-08-11T10:24:33.545Z,28.70
2022-08-11T10:27:03.469Z,28.90
2022-08-11T10:29:54.896Z,29.10
2022-08-11T10:32:58.816Z,29.30
2022-08-11T10:35:32.075Z,29.50
2022-08-11T10:38:06.583Z,29.70
2022-08-11T10:40:40.388Z,29.90
2022-08-11T10:43:13.784Z,30.10
2022-08-11T10:46:04.939Z,30.30
2022-08-11T10:48:38.869Z,30.50
2022-08-11T10:51:13.953Z,30.80
2022-08-11T10:54:03.857Z,31.00
2022-08-11T10:57:13.392Z,31.20
2022-08-11T10:59:43.448Z,31.50
2022-08-11T11:02:15.749Z,31.70
2022-08-11T11:05:00.991Z,31.90
2022-08-11T11:07:43.922Z,32.10
2022-08-11T11:10:13.099Z,32.20
2022-08-11T11:13:03.327Z,32.40
2022-08-11T11:15:51.389Z,32.60
2022-08-11T11:18:23.757Z,32.70
2022-08-11T11:20:58.702Z,32.90
2022-08-11T11:23:37.123Z,33.00
2022-08-11T11:26:39.549Z,33.10
2022-08-11T11:29:36.104Z,33.30
2022-08-11T11:32:25.287Z,33.50
2022-08-11T11:35:18.066Z,33.60
2022-08-11T11:38:01.901Z,33.70
2022-08-11T11:40:37.487Z,33.80
2022-08-11T11:43:07.142Z,33.90
2022-08-11T11:45:36.185Z,34.00
2022-08-11T11:48:05.738Z,34.10
2022-08-11T11:50:38.450Z,34.20
2022-08-11T11:53:11.041Z,34.30
2022-08-11T11:55:42.194Z,34.40
2022-08-11T11:58:28.310Z,34.50
2022-08-11T12:01:15.825Z,34.70
2022-08-11T12:03:46.811Z,34.80
2022-08-11T12:06:15.639Z,34.90
2022-08-11T12:08:45.247Z,35.00
2022-08-11T12:11:34.314Z,35.10
2022-08-11T12:14:10.398Z,35.10
2022-08-11T12:16:42.062Z,35.20
2022-08-11T12:19:13.746Z,35.30
2022-08-11T12:22:04.028Z,35.30
2022-08-11T12:24:52.431Z,35.40
2022-08-11T12:27:25.565Z,35.50
2022-08-11T12:29:59.415Z,35.50
2022-08-11T12:32:31.713Z,35.60
2022-08-11T12:35:01.487Z,35.60
2022-08-11T12:37:35.020Z,35.60
2022-08-11T12:40:43.182Z,35.70
2022-08-11T12:43:39.244Z,35.70
2022-08-11T12:46:20.947Z,35.70
2022-08-11T12:49:14.687Z,35.80
2022-08-11T12:52:11.048Z,35.80
2022-08-11T12:54:51.907Z,35.80
2022-08-11T12:57:45.758Z,35.90
2022-08-11T13:00:35.188Z,35.90
2022-08-11T13:03:22.620Z,35.90
2022-08-11T13:05:56.105Z,35.80
2022-08-11T13:08:27.131Z,35.80
2022-08-11T13:11:17.450Z,35.70
2022-08-11T13:13:53.538Z,35.60
2022-08-11T13:16:29.569Z,35.60
2022-08-11T13:19:01.343Z,35.60
2022-08-11T13:21:30.775Z,35.50
2022-08-11T13:24:03.032Z,35.50
2022-08-11T13:26:46.999Z,35.50
2022-08-11T13:29:24.622Z,35.40
2022-08-11T13:31:58.268Z,35.30
2022-08-11T13:34:31.224Z,35.30
2022-08-11T13:37:04.289Z,35.30
2022-08-11T13:39:34.896Z,35.20
2022-08-11T13:42:05.341Z,35.20
2022-08-11T13:44:37.255Z,35.20
2022-08-11T13:47:10.137Z,35.20
2022-08-11T13:49:41.352Z,35.10
2022-08-11T13:52:14.044Z,35.10
2022-08-11T13:54:44.608Z,35.10
2022-08-11T13:58:06.662Z,35.00
2022-08-11T14:00:14.542Z,35.00
2022-08-11T14:02:58.909Z,35.00
2022-08-11T14:05:30.444Z,35.00
2022-08-11T14:08:04.314Z,35.00
2022-08-11T14:10:35.454Z,34.90
2022-08-11T14:13:26.569Z,34.90
2022-08-11T14:16:02.107Z,34.90
2022-08-11T14:18:33.825Z,34.90
2022-08-11T14:21:23.054Z,34.70
2022-08-11T14:23:59.350Z,34.90
2022-08-11T14:26:36.692Z,34.80
2022-08-11T14:29:09.664Z,34.80
2022-08-11T14:31:42.091Z,34.70
2022-08-11T14:34:14.629Z,34.70
2022-08-11T14:36:46.640Z,34.70
2022-08-11T14:39:18.592Z,34.60
2022-08-11T14:42:12.207Z,34.60
2022-08-11T14:45:02.326Z,34.60
2022-08-11T14:47:33.805Z,34.60
2022-08-11T14:50:10.458Z,34.50
2022-08-11T14:52:47.011Z,34.50
2022-08-11T14:55:33.259Z,34.50
2022-08-11T14:58:03.300Z,34.40
2022-08-11T15:00:34.295Z,34.30
2022-08-11T15:03:12.904Z,34.30
2022-08-11T15:05:56.453Z,34.30
2022-08-11T15:08:47.590Z,34.20
2022-08-11T15:11:38.405Z,34.20
2022-08-11T15:14:09.288Z,34.20
2022-08-11T15:16:59.843Z,34.20
2022-08-11T15:19:40.599Z,34.20
2022-08-11T15:22:29.095Z,34.20
2022-08-11T15:24:59.981Z,34.20
2022-08-11T15:27:48.475Z,34.20
2022-08-11T15:30:35.605Z,34.10
2022-08-11T15:33:26.609Z,34.10
2022-08-11T15:36:15.260Z,34.10
2022-08-11T15:38:55.161Z,34.00
2022-08-11T15:41:54.617Z,34.00
2022-08-11T15:45:05.361Z,34.00
2022-08-11T15:47:41.686Z,34.00
2022-08-11T15:50:15.934Z,33.90
2022-08-11T15:52:54.450Z,33.90
2022-08-11T15:55:25.693Z,33.90
2022-08-11T15:58:13.827Z,33.80
2022-08-11T16:01:04.255Z,33.80
2022-08-11T16:04:09.009Z,33.80
2022-08-11T16:06:49.360Z,33.70
2022-08-11T16:09:24.631Z,33.70
2022-08-11T16:12:01.119Z,33.70
2022-08-11T16:14:50.227Z,33.70
2022-08-11T16:17:21.150Z,33.70
2022-08-11T16:19:53.074Z,33.70
2022-08-11T16:22:34.656Z,33.70
2022-08-11T16:27:02.760Z,33.60
2022-08-11T16:28:00.608Z,33.60
2022-08-11T16:30:31.046Z,33.50
2022-08-11T16:33:00.740Z,33.60
2022-08-11T16:36:07.794Z,33.50
2022-08-11T16:38:40.171Z,33.50
2022-08-11T16:41:12.159Z,33.50
2022-08-11T16:44:04.184Z,33.40
2022-08-11T16:46:50.626Z,33.50
2022-08-11T16:49:34.808Z,33.40
2022-08-11T16:52:05.490Z,33.40
2022-08-11T16:54:35.908Z,33.40
2022-08-11T16:57:22.094Z,33.40
2022-08-11T16:59:57.958Z,33.40
2022-08-11T17:02:47.236Z,33.30
2022-08-11T17:05:38.149Z,33.30
2022-08-11T17:08:27.511Z,33.30
2022-08-11T17:11:17.455Z,33.30
2022-08-11T17:13:51.495Z,33.30
2022-08-11T17:16:26.225Z,33.30
2022-08-11T17:19:01.216Z,33.30
2022-08-11T17:21:34.751Z,33.20
2022-08-11T17:24:09.328Z,33.20
2022-08-11T17:26:56.988Z,33.20
2022-08-11T17:29:29.191Z,33.20
2022-08-11T17:32:18.671Z,33.10
2022-08-11T17:35:07.203Z,33.10
2022-08-11T17:37:38.125Z,33.10
2022-08-11T17:40:12.406Z,33.00
2022-08-11T17:43:00.485Z,33.00
2022-08-11T17:45:47.566Z,32.90
2022-08-11T17:48:27.319Z,32.90
2022-08-11T17:50:59.253Z,32.80
2022-08-11T17:54:02.236Z,32.80
2022-08-11T17:56:55.239Z,32.70
2022-08-11T17:59:43.728Z,32.70
2022-08-11T18:02:38.416Z,32.60
2022-08-11T18:05:13.262Z,32.60
2022-08-11T18:08:01.097Z,32.50
2022-08-11T18:10:50.588Z,32.50
2022-08-11T18:13:40.756Z,32.40
2022-08-11T18:16:27.248Z,32.40
2022-08-11T18:19:13.111Z,32.30
2022-08-11T18:22:15.708Z,32.20
2022-08-11T18:25:07.512Z,32.10
2022-08-11T18:27:57.479Z,32.00
2022-08-11T18:30:44.454Z,31.90
2022-08-11T18:34:03.816Z,31.80
2022-08-11T18:36:46.409Z,31.70
2022-08-11T18:39:34.096Z,31.60
2022-08-11T18:42:29.120Z,31.50
2022-08-11T18:45:22.245Z,31.40
2022-08-11T18:48:11.575Z,31.20
2022-08-11T18:51:29.866Z,31.10
2022-08-11T18:54:11.803Z,31.00
2022-08-11T18:57:00.936Z,30.80
2022-08-11T18:59:51.400Z,30.70
2022-08-11T19:02:49.494Z,30.60
2022-08-11T19:06:37.189Z,30.50
2022-08-11T19:09:11.342Z,30.40
2022-08-11T19:12:00.031Z,30.30
2022-08-11T19:14:48.677Z,30.10
2022-08-11T19:17:45.125Z,30.10
2022-08-11T19:20:36.830Z,29.90
2022-08-11T19:23:25.900Z,29.80
2022-08-11T19:26:13.053Z,29.70
2022-08-11T19:29:03.292Z,29.60
2022-08-11T19:31:50.366Z,29.50
2022-08-11T19:34:41.170Z,29.40
2022-08-11T19:37:29.060Z,29.30
2022-08-11T19:40:20.936Z,29.20
2022-08-11T19:43:18.697Z,29.10
2022-08-11T19:46:19.141Z,28.90
2022-08-11T19:49:09.549Z,28.80
2022-08-11T19:51:56.760Z,28.80
2022-08-11T19:54:45.596Z,28.60
2022-08-11T19:57:38.755Z,28.50
2022-08-11T20:00:31.498Z,28.40
2022-08-11T20:03:30.603Z,28.30
2022-08-11T20:06:20.634Z,28.20
2022-08-11T20:09:08.644Z,28.10
2022-08-11T20:12:05.028Z,28.00
2022-08-11T20:14:54.131Z,27.90
2022-08-11T20:17:46.006Z,27.80
2022-08-11T20:20:35.557Z,27.70
2022-08-11T20:23:25.616Z,27.60
2022-08-11T20:26:30.220Z,27.50
2022-08-11T20:29:18.790Z,27.40
2022-08-11T20:32:06.659Z,27.50
2022-08-11T20:34:58.331Z,27.20
2022-08-11T20:37:51.027Z,27.10
2022-08-11T20:40:40.604Z,27.00
2022-08-11T20:44:06.147Z,26.90
2022-08-11T20:46:38.852Z,26.80
2022-08-11T20:49:40.911Z,26.60
2022-08-11T20:52:34.705Z,26.50
2022-08-11T20:55:26.118Z,26.40
2022-08-11T20:58:47.974Z,26.30
2022-08-11T21:01:41.452Z,26.30
2022-08-11T21:04:27.989Z,26.20
2022-08-11T21:10:24.651Z,26.10
2022-08-11T21:13:25.545Z,25.90
2022-08-11T21:16:26.354Z,25.80
2022-08-11T21:19:55.162Z,25.80
2022-08-11T21:22:28.389Z,25.70
2022-08-11T21:25:16.367Z,25.60
2022-08-11T21:28:04.925Z,25.40
2022-08-11T21:30:57.888Z,25.40
2022-08-11T21:33:46.360Z,25.40
2022-08-11T21:36:34.043Z,25.20
2022-08-11T21:39:22.849Z,25.10
2022-08-11T21:42:13.299Z,25.10
2022-08-11T21:45:02.016Z,25.00
2022-08-11T21:47:49.510Z,25.00
2022-08-11T21:50:47.372Z,24.90
2022-08-11T21:53:34.327Z,24.70
2022-08-11T21:56:20.695Z,24.70
2022-08-11T21:59:08.278Z,24.60
2022-08-11T22:01:56.051Z,24.50
2022-08-11T22:04:43.739Z,24.40
2022-08-11T22:07:30.868Z,24.30
2022-08-11T22:10:40.394Z,24.30
2022-08-11T22:13:26.137Z,24.20
2022-08-11T22:16:12.711Z,24.10
2022-08-11T22:19:01.195Z,24.10
2022-08-11T22:22:02.711Z,24.00
2022-08-11T22:24:52.761Z,23.90
2022-08-11T22:27:39.762Z,23.80
2022-08-11T22:30:30.843Z,23.80
2022-08-11T22:33:24.373Z,23.70
2022-08-11T22:36:15.901Z,23.60
2022-08-11T22:39:04.360Z,23.70
2022-08-11T22:41:50.706Z,23.70
2022-08-11T22:44:36.715Z,23.50
2022-08-11T22:47:23.810Z,23.40
2022-08-11T22:50:17.399Z,23.40
2022-08-11T22:53:07.302Z,23.30
2022-08-11T22:55:53.875Z,23.30
2022-08-11T22:58:40.857Z,23.30
2022-08-11T23:01:28.119Z,23.10
2022-08-11T23:04:15.194Z,23.10
2022-08-11T23:07:01.370Z,23.10
2022-08-11T23:09:49.568Z,23.00
2022-08-11T23:12:56.560Z,22.90
2022-08-11T23:15:43.614Z,22.90
2022-08-11T23:18:31.821Z,22.90
2022-08-11T23:21:18.163Z,22.80
2022-08-11T23:24:04.096Z,22.70
2022-08-11T23:26:51.303Z,22.70
2022-08-11T23:29:37.986Z,22.60
2022-08-11T23:32:25.664Z,22.60
2022-08-11T23:35:38.444Z,22.50
2022-08-11T23:38:21.572Z,22.40
2022-08-11T23:41:07.636Z,22.40
2022-08-11T23:43:55.597Z,22.40
2022-08-11T23:46:43.193Z,22.30
2022-08-11T23:49:29.662Z,22.20
2022-08-11T23:52:16.565Z,22.20
2022-08-11T23:55:04.505Z,22.00
2022-08-11T23:57:50.492Z,22.00
